createdAt,value
2019-05-23T00:05:57.844Z,12.07
2019-05-23T00:12:13.917Z,11.94
2019-05-23T00:18:21.314Z,11.89
2019-05-23T00:24:27.346Z,11.79
2019-05-23T00:30:40.779Z,11.68
2019-05-23T00:36:47.128Z,11.60
2019-05-23T00:42:53.701Z,11.57
2019-05-23T00:49:00.526Z,11.48
2019-05-23T00:55:08.532Z,11.44
2019-05-23T01:01:14.331Z,11.39
2019-05-23T01:07:21.830Z,11.30
2019-05-23T01:13:28.683Z,11.26
2019-05-23T01:19:34.661Z,11.24
2019-05-23T01:25:40.930Z,11.11
2019-05-23T01:31:48.556Z,10.91
2019-05-23T01:37:57.661Z,10.80
2019-05-23T01:44:05.104Z,10.69
2019-05-23T01:50:13.092Z,10.55
2019-05-23T01:56:20.204Z,10.45
2019-05-23T02:02:27.456Z,10.43
2019-05-23T02:08:36.717Z,10.40
2019-05-23T02:14:45.905Z,10.36
2019-05-23T02:20:53.329Z,10.26
2019-05-23T02:26:59.976Z,10.15
2019-05-23T02:33:05.771Z,10.03
2019-05-23T02:39:29.779Z,10.04
2019-05-23T02:45:39.742Z,10.04
2019-05-23T02:51:46.687Z,9.96
2019-05-23T02:57:53.215Z,9.93
2019-05-23T03:04:05.848Z,9.89
2019-05-23T03:10:13.698Z,9.83
2019-05-23T03:16:24.247Z,9.79
2019-05-23T03:22:45.410Z,9.78
2019-05-23T03:28:52.599Z,9.70
2019-05-23T03:35:05.495Z,9.68
2019-05-23T03:41:12.545Z,9.69
2019-05-23T03:47:20.621Z,9.66
2019-05-23T03:53:28.691Z,9.63
2019-05-23T03:59:35.351Z,9.66
2019-05-23T04:05:43.873Z,9.65
2019-05-23T04:11:49.884Z,9.67
2019-05-23T04:17:55.896Z,9.72
2019-05-23T04:24:02.078Z,9.69
2019-05-23T04:30:10.318Z,9.75
2019-05-23T04:36:16.788Z,9.78
2019-05-23T04:42:22.887Z,9.80
2019-05-23T04:48:29.432Z,9.85
2019-05-23T04:54:35.408Z,9.99
2019-05-23T05:00:41.403Z,10.04
2019-05-23T05:06:47.312Z,10.05
2019-05-23T05:12:55.184Z,10.11
2019-05-23T05:19:01.466Z,10.25
2019-05-23T05:25:10.156Z,10.33
2019-05-23T05:31:15.934Z,10.44
2019-05-23T05:37:21.954Z,10.52
2019-05-23T05:43:28.002Z,10.66
2019-05-23T05:49:34.917Z,10.91
2019-05-23T05:55:40.906Z,11.19
2019-05-23T06:01:47.640Z,11.44
2019-05-23T06:07:54.957Z,11.76
2019-05-23T06:14:00.936Z,12.05
2019-05-23T06:20:08.043Z,12.39
2019-05-23T06:26:13.821Z,12.71
2019-05-23T06:32:21.331Z,12.99
2019-05-23T06:38:27.321Z,13.28
2019-05-23T06:44:33.861Z,13.53
2019-05-23T06:50:41.749Z,13.76
2019-05-23T06:56:48.527Z,13.96
2019-05-23T07:02:54.519Z,14.18
2019-05-23T07:09:01.426Z,14.44
2019-05-23T07:15:07.614Z,14.67
2019-05-23T07:21:14.179Z,14.87
2019-05-23T07:27:21.646Z,15.05
2019-05-23T07:33:27.811Z,15.23
2019-05-23T07:39:33.572Z,15.43
2019-05-23T07:45:44.339Z,15.62
2019-05-23T07:51:51.342Z,15.80
2019-05-23T07:57:58.219Z,16.02
2019-05-23T08:04:20.493Z,16.24
2019-05-23T08:10:14.036Z,16.41
2019-05-23T08:16:20.181Z,16.58
2019-05-23T08:22:27.763Z,16.69
2019-05-23T08:28:34.407Z,16.88
2019-05-23T08:34:42.912Z,17.07
2019-05-23T08:40:49.924Z,17.29
2019-05-23T08:46:56.659Z,17.48
2019-05-23T08:53:02.671Z,17.65
2019-05-23T08:59:10.929Z,17.80
2019-05-23T09:05:19.188Z,17.97
2019-05-23T09:11:26.192Z,18.16
2019-05-23T09:17:49.724Z,18.31
2019-05-23T09:23:40.776Z,18.56
2019-05-23T09:29:47.247Z,18.77
2019-05-23T09:35:53.417Z,18.91
2019-05-23T09:41:59.424Z,19.02
2019-05-23T09:48:06.041Z,19.19
2019-05-23T09:54:12.627Z,19.40
2019-05-23T10:00:21.658Z,19.63
2019-05-23T10:06:28.079Z,19.79
2019-05-23T10:12:34.146Z,19.98
2019-05-23T10:18:41.738Z,20.14
2019-05-23T10:24:47.592Z,20.37
2019-05-23T10:30:53.605Z,20.50
2019-05-23T10:36:59.646Z,20.72
2019-05-23T10:43:05.717Z,20.78
2019-05-23T10:49:12.101Z,21.01
2019-05-23T10:55:18.779Z,20.92
2019-05-23T11:01:24.947Z,21.14
2019-05-23T11:07:31.006Z,21.37
2019-05-23T11:13:38.653Z,21.40
2019-05-23T11:19:45.111Z,21.78
2019-05-23T11:25:51.412Z,21.93
2019-05-23T11:31:57.700Z,21.86
2019-05-23T11:38:04.017Z,21.84
2019-05-23T11:44:10.623Z,21.90
2019-05-23T11:50:17.135Z,22.24
2019-05-23T11:56:23.302Z,22.32
2019-05-23T12:02:33.547Z,22.58
2019-05-23T12:08:39.954Z,22.90
2019-05-23T12:14:46.202Z,23.11
2019-05-23T12:20:59.576Z,23.35
2019-05-23T12:27:04.231Z,23.29
2019-05-23T12:33:10.560Z,23.46
2019-05-23T12:39:16.942Z,23.62
2019-05-23T12:45:24.987Z,23.72
2019-05-23T12:51:33.785Z,23.88
2019-05-23T12:57:39.872Z,24.17
2019-05-23T13:03:47.411Z,24.17
2019-05-23T13:09:53.295Z,24.31
2019-05-23T13:15:59.323Z,24.50
2019-05-23T13:22:05.738Z,24.57
2019-05-23T13:28:12.155Z,24.73
2019-05-23T13:34:18.819Z,24.81
2019-05-23T13:40:25.315Z,24.86
2019-05-23T13:46:31.722Z,24.80
2019-05-23T13:52:38.793Z,25.05
2019-05-23T13:58:45.501Z,25.00
2019-05-23T14:04:52.226Z,25.11
2019-05-23T14:10:58.466Z,25.19
2019-05-23T14:17:27.988Z,25.52
2019-05-23T14:23:34.453Z,25.75
2019-05-23T14:29:40.782Z,26.12
2019-05-23T14:35:48.868Z,26.38
2019-05-23T14:42:00.834Z,26.66
2019-05-23T14:48:14.369Z,26.20
2019-05-23T14:54:25.632Z,26.67
2019-05-23T15:00:32.874Z,27.38
2019-05-23T15:06:39.587Z,27.42
2019-05-23T15:12:45.753Z,27.61
2019-05-23T15:18:52.106Z,26.76
2019-05-23T15:24:58.627Z,27.03
2019-05-23T15:31:05.486Z,26.75
2019-05-23T15:37:12.669Z,26.26
2019-05-23T15:43:18.810Z,26.11
2019-05-23T15:49:25.991Z,25.77
2019-05-23T15:55:40.790Z,26.10
2019-05-23T16:01:59.528Z,26.62
2019-05-23T16:08:06.391Z,26.42
2019-05-23T16:14:12.921Z,26.10
2019-05-23T16:20:19.144Z,25.70
2019-05-23T16:26:25.494Z,25.39
2019-05-23T16:32:31.753Z,25.56
2019-05-23T16:38:38.140Z,25.79
2019-05-23T16:44:44.560Z,25.88
2019-05-23T16:50:51.117Z,25.62
2019-05-23T16:57:25.566Z,25.31
2019-05-23T17:03:41.638Z,25.37
2019-05-23T17:10:08.125Z,25.69
2019-05-23T17:16:15.772Z,25.62
2019-05-23T17:22:55.783Z,25.61
2019-05-23T17:29:04.207Z,25.18
2019-05-23T17:35:10.797Z,25.08
2019-05-23T17:41:17.436Z,24.99
2019-05-23T17:47:23.953Z,24.82
2019-05-23T17:53:30.467Z,24.53
2019-05-23T17:59:37.003Z,24.16
2019-05-23T18:05:43.272Z,23.62
2019-05-23T18:11:49.587Z,23.33
2019-05-23T18:17:58.763Z,23.18
2019-05-23T18:24:06.409Z,22.90
2019-05-23T18:30:27.591Z,22.85
2019-05-23T18:36:33.634Z,22.68
2019-05-23T18:42:40.156Z,22.52
2019-05-23T18:48:46.527Z,22.40
2019-05-23T18:54:52.311Z,22.20
2019-05-23T19:01:19.189Z,22.00
2019-05-23T19:07:25.293Z,21.79
2019-05-23T19:13:31.497Z,21.59
2019-05-23T19:19:37.471Z,21.29
2019-05-23T19:25:44.873Z,20.96
2019-05-23T19:31:50.796Z,20.76
2019-05-23T19:37:56.606Z,20.61
2019-05-23T19:44:02.785Z,20.52
2019-05-23T19:50:09.139Z,20.32
2019-05-23T19:56:15.398Z,20.13
2019-05-23T20:02:45.002Z,19.96
2019-05-23T20:08:52.668Z,19.89
2019-05-23T20:14:58.490Z,19.70
2019-05-23T20:21:04.370Z,19.54
2019-05-23T20:27:10.570Z,19.20
2019-05-23T20:33:16.405Z,18.91
2019-05-23T20:39:22.850Z,18.73
2019-05-23T20:45:29.149Z,18.35
2019-05-23T20:51:35.654Z,17.78
2019-05-23T20:57:41.502Z,17.64
2019-05-23T21:03:48.597Z,17.35
2019-05-23T21:09:54.881Z,17.22
2019-05-23T21:16:00.786Z,17.12
2019-05-23T21:22:06.727Z,16.93
2019-05-23T21:28:12.472Z,16.70
2019-05-23T21:34:21.863Z,16.45
2019-05-23T21:40:54.235Z,16.39
2019-05-23T21:47:00.146Z,16.14
2019-05-23T21:53:05.930Z,15.92
2019-05-23T21:59:11.671Z,15.66
2019-05-23T22:05:18.710Z,15.49
2019-05-23T22:11:24.526Z,15.31
2019-05-23T22:17:31.205Z,15.17
2019-05-23T22:23:37.410Z,15.02
2019-05-23T22:29:45.335Z,14.90
2019-05-23T22:35:51.342Z,14.83
2019-05-23T22:41:57.700Z,14.78
2019-05-23T22:48:03.771Z,14.63
2019-05-23T22:54:09.697Z,14.53
2019-05-23T23:00:18.206Z,14.43
2019-05-23T23:06:24.403Z,14.28
2019-05-23T23:12:31.945Z,14.23
2019-05-23T23:18:38.217Z,14.31
2019-05-23T23:24:44.030Z,14.10
2019-05-23T23:30:51.570Z,14.00
2019-05-23T23:36:57.353Z,13.87
2019-05-23T23:43:03.233Z,13.72
2019-05-23T23:49:26.387Z,13.59
2019-05-23T23:55:49.912Z,13.51
